createdAt,value
2023-02-09T00:00:30.721Z,65.15
2023-02-09T00:04:38.015Z,65.45
2023-02-09T00:08:44.342Z,65.65
2023-02-09T00:13:04.928Z,65.15
2023-02-09T00:17:11.861Z,64.73
2023-02-09T00:21:17.390Z,65.11
2023-02-09T00:25:27.488Z,65.20
2023-02-09T00:29:31.029Z,65.33
2023-02-09T00:33:34.174Z,65.28
2023-02-09T00:37:39.070Z,65.24
2023-02-09T00:42:00.074Z,65.29
2023-02-09T00:46:06.434Z,65.00
2023-02-09T00:50:15.515Z,65.77
2023-02-09T00:54:28.544Z,65.51
2023-02-09T00:58:32.082Z,65.73
2023-02-09T01:02:38.981Z,65.86
2023-02-09T01:06:46.424Z,65.87
2023-02-09T01:10:58.657Z,66.57
2023-02-09T01:15:04.103Z,66.78
2023-02-09T01:19:13.850Z,66.47
2023-02-09T01:23:18.649Z,66.88
2023-02-09T01:27:26.362Z,67.25
2023-02-09T01:31:35.543Z,67.10
2023-02-09T01:35:43.730Z,67.66
2023-02-09T01:39:50.746Z,67.89
2023-02-09T01:43:58.728Z,68.12
2023-02-09T01:48:04.804Z,68.13
2023-02-09T01:52:12.679Z,68.20
2023-02-09T01:56:26.089Z,68.69
2023-02-09T02:00:30.954Z,68.73
2023-02-09T02:04:35.393Z,68.31
2023-02-09T02:08:46.256Z,69.04
2023-02-09T02:12:51.942Z,68.65
2023-02-09T02:17:09.646Z,69.51
2023-02-09T02:21:37.671Z,69.42
2023-02-09T02:26:12.700Z,69.44
2023-02-09T02:30:40.243Z,69.36
2023-02-09T02:34:48.877Z,69.85
2023-02-09T02:38:58.194Z,70.27
2023-02-09T02:43:14.821Z,70.17
2023-02-09T02:47:21.579Z,70.54
2023-02-09T02:51:33.745Z,71.11
2023-02-09T02:55:41.599Z,71.11
2023-02-09T02:59:55.009Z,71.02
2023-02-09T03:04:02.518Z,71.27
2023-02-09T03:08:18.293Z,71.30
2023-02-09T03:12:33.604Z,71.74
2023-02-09T03:16:47.021Z,71.82
2023-02-09T03:20:53.866Z,71.88
2023-02-09T03:25:09.514Z,72.23
2023-02-09T03:29:21.223Z,72.84
2023-02-09T03:33:28.532Z,73.19
2023-02-09T03:37:34.919Z,73.23
2023-02-09T03:41:42.270Z,73.46
2023-02-09T03:45:49.859Z,73.66
2023-02-09T03:49:55.465Z,74.03
2023-02-09T03:53:59.681Z,74.10
2023-02-09T03:58:07.999Z,74.05
2023-02-09T04:02:12.123Z,74.33
2023-02-09T04:06:16.534Z,74.51
2023-02-09T04:10:25.346Z,74.69
2023-02-09T04:14:33.071Z,75.06
2023-02-09T04:18:37.534Z,75.26
2023-02-09T04:22:45.509Z,75.58
2023-02-09T04:26:50.315Z,75.38
2023-02-09T04:30:57.445Z,75.59
2023-02-09T04:35:03.868Z,75.60
2023-02-09T04:39:07.986Z,76.00
2023-02-09T04:43:15.472Z,76.07
2023-02-09T04:47:20.801Z,76.58
2023-02-09T04:51:28.056Z,76.01
2023-02-09T04:55:34.384Z,76.05
2023-02-09T04:59:43.711Z,76.49
2023-02-09T05:03:48.923Z,76.84
2023-02-09T05:07:54.066Z,76.78
2023-02-09T05:12:01.653Z,77.24
2023-02-09T05:16:16.329Z,77.08
2023-02-09T05:20:22.991Z,77.20
2023-02-09T05:24:26.280Z,77.79
2023-02-09T05:28:31.678Z,77.89
2023-02-09T05:32:35.012Z,78.28
2023-02-09T05:36:57.206Z,78.17
2023-02-09T05:41:06.814Z,78.08
2023-02-09T05:45:11.863Z,78.26
2023-02-09T05:49:14.755Z,79.20
2023-02-09T05:53:18.963Z,78.45
2023-02-09T05:57:21.816Z,78.71
2023-02-09T06:01:24.638Z,79.57
2023-02-09T06:05:28.086Z,79.72
2023-02-09T06:09:32.252Z,79.73
2023-02-09T06:13:35.158Z,79.88
2023-02-09T06:17:38.374Z,80.06
2023-02-09T06:21:41.362Z,79.92
2023-02-09T06:25:45.489Z,80.26
2023-02-09T06:29:48.286Z,80.58
2023-02-09T06:33:51.142Z,80.50
2023-02-09T06:37:57.661Z,81.03
2023-02-09T06:42:01.841Z,81.49
2023-02-09T06:46:08.671Z,81.26
2023-02-09T06:50:13.135Z,81.95
2023-02-09T06:54:16.099Z,82.29
2023-02-09T06:58:20.280Z,82.25
2023-02-09T07:02:23.187Z,82.56
2023-02-09T07:06:26.095Z,82.50
2023-02-09T07:10:28.959Z,83.48
2023-02-09T07:14:33.211Z,82.64
2023-02-09T07:18:36.957Z,82.46
2023-02-09T07:22:39.764Z,82.41
2023-02-09T07:26:42.741Z,82.55
2023-02-09T07:30:48.610Z,82.83
2023-02-09T07:34:51.927Z,82.61
2023-02-09T07:38:56.222Z,82.99
2023-02-09T07:42:59.273Z,83.03
2023-02-09T07:47:03.482Z,82.71
2023-02-09T07:51:07.140Z,82.77
2023-02-09T07:55:09.960Z,82.92
2023-02-09T07:59:12.839Z,82.99
2023-02-09T08:03:19.757Z,83.82
2023-02-09T08:07:22.839Z,83.56
2023-02-09T08:11:30.176Z,83.35
2023-02-09T08:15:43.690Z,83.45
2023-02-09T08:19:52.197Z,83.19
2023-02-09T08:23:58.298Z,83.26
2023-02-09T08:28:02.262Z,83.21
2023-02-09T08:32:05.849Z,83.13
2023-02-09T08:36:11.541Z,83.10
2023-02-09T08:40:15.729Z,82.80
2023-02-09T08:44:18.574Z,82.82
2023-02-09T08:48:21.362Z,82.42
2023-02-09T08:52:25.790Z,82.20
2023-02-09T08:56:28.628Z,81.81
2023-02-09T09:00:32.222Z,81.73
2023-02-09T09:04:35.048Z,81.03
2023-02-09T09:08:40.781Z,80.90
2023-02-09T09:12:44.852Z,80.13
2023-02-09T09:16:47.760Z,80.36
2023-02-09T09:20:50.704Z,79.89
2023-02-09T09:24:55.341Z,78.68
2023-02-09T09:28:58.242Z,78.31
2023-02-09T09:33:01.201Z,76.75
2023-02-09T09:37:04.065Z,76.20
2023-02-09T09:41:19.913Z,75.40
2023-02-09T09:45:26.168Z,74.78
2023-02-09T09:49:32.487Z,73.24
2023-02-09T09:53:37.893Z,71.92
2023-02-09T09:57:45.318Z,70.16
2023-02-09T10:01:50.208Z,70.44
2023-02-09T10:05:55.343Z,71.28
2023-02-09T10:10:04.348Z,70.99
2023-02-09T10:14:11.029Z,69.84
2023-02-09T10:18:16.996Z,68.70
2023-02-09T10:22:21.920Z,67.51
2023-02-09T10:26:26.318Z,68.67
2023-02-09T10:30:30.859Z,68.84
2023-02-09T10:34:42.303Z,67.99
2023-02-09T10:38:45.205Z,65.02
2023-02-09T10:42:56.987Z,64.62
2023-02-09T10:47:12.705Z,65.11
2023-02-09T10:51:17.288Z,64.58
2023-02-09T10:55:23.892Z,64.38
2023-02-09T10:59:27.039Z,63.84
2023-02-09T11:03:31.411Z,63.55
2023-02-09T11:07:38.455Z,63.47
2023-02-09T11:11:42.760Z,64.21
2023-02-09T11:16:26.736Z,62.17
2023-02-09T11:20:36.955Z,62.48
2023-02-09T11:24:49.385Z,61.42
2023-02-09T11:29:00.007Z,61.81
2023-02-09T11:33:09.488Z,60.71
2023-02-09T11:37:28.912Z,61.67
2023-02-09T11:41:56.300Z,60.39
2023-02-09T11:46:04.563Z,60.69
2023-02-09T11:50:11.535Z,60.27
2023-02-09T11:54:18.565Z,60.94
2023-02-09T11:58:31.934Z,61.16
2023-02-09T12:02:47.420Z,60.47
2023-02-09T12:06:54.781Z,59.07
2023-02-09T12:11:12.731Z,58.71
2023-02-09T12:15:17.729Z,57.44
2023-02-09T12:19:27.093Z,56.92
2023-02-09T12:23:33.428Z,57.26
2023-02-09T12:27:39.003Z,57.81
2023-02-09T12:32:15.458Z,57.73
2023-02-09T12:36:30.777Z,57.61
2023-02-09T12:40:38.191Z,57.67
2023-02-09T12:44:55.145Z,58.01
2023-02-09T12:49:14.464Z,58.45
2023-02-09T12:53:45.221Z,58.24
2023-02-09T12:57:52.114Z,58.62
2023-02-09T13:02:27.279Z,59.31
2023-02-09T13:06:37.502Z,59.43
2023-02-09T13:10:43.844Z,60.08
2023-02-09T13:14:50.968Z,60.88
2023-02-09T13:19:01.968Z,60.03
2023-02-09T13:23:17.858Z,59.90
2023-02-09T13:27:22.927Z,60.12
2023-02-09T13:31:34.665Z,60.08
2023-02-09T13:35:50.770Z,61.07
2023-02-09T13:39:57.613Z,60.38
2023-02-09T13:44:00.562Z,61.18
2023-02-09T13:48:04.803Z,61.69
2023-02-09T13:52:14.967Z,61.11
2023-02-09T13:56:17.888Z,61.73
2023-02-09T14:00:29.280Z,61.86
2023-02-09T14:04:35.966Z,62.12
2023-02-09T14:08:41.600Z,62.30
2023-02-09T14:12:55.853Z,61.72
2023-02-09T14:17:25.273Z,62.27
2023-02-09T14:21:32.556Z,62.21
2023-02-09T14:25:36.877Z,61.41
2023-02-09T14:29:46.805Z,62.45
2023-02-09T14:33:51.896Z,62.67
2023-02-09T14:37:57.202Z,62.91
2023-02-09T14:42:14.822Z,64.07
2023-02-09T14:46:17.633Z,65.29
2023-02-09T14:50:23.454Z,65.37
2023-02-09T14:54:28.170Z,65.73
2023-02-09T14:58:34.896Z,66.46
2023-02-09T15:02:37.791Z,67.44
2023-02-09T15:06:42.299Z,68.41
2023-02-09T15:10:47.869Z,68.22
2023-02-09T15:14:54.952Z,68.27
2023-02-09T15:18:57.875Z,68.92
2023-02-09T15:23:01.951Z,69.73
2023-02-09T15:27:04.930Z,69.93
2023-02-09T15:31:14.436Z,69.88
2023-02-09T15:35:20.486Z,70.40
2023-02-09T15:39:25.177Z,70.83
2023-02-09T15:43:45.797Z,71.11
2023-02-09T15:47:50.021Z,71.28
2023-02-09T15:51:52.938Z,71.32
2023-02-09T15:55:58.749Z,71.64
2023-02-09T16:00:01.696Z,72.40
2023-02-09T16:04:14.023Z,72.71
2023-02-09T16:08:20.949Z,72.63
2023-02-09T16:12:23.825Z,72.44
2023-02-09T16:16:27.832Z,73.51
2023-02-09T16:20:32.527Z,72.82
2023-02-09T16:24:39.878Z,73.40
2023-02-09T16:28:42.715Z,73.47
2023-02-09T16:32:45.835Z,73.33
2023-02-09T16:36:50.661Z,74.01
2023-02-09T16:40:55.115Z,74.22
2023-02-09T16:44:58.227Z,74.21
2023-02-09T16:49:02.462Z,74.60
2023-02-09T16:53:18.673Z,75.04
2023-02-09T16:57:24.064Z,75.24
2023-02-09T17:01:26.944Z,74.93
2023-02-09T17:05:32.548Z,76.42
2023-02-09T17:09:36.801Z,76.98
2023-02-09T17:13:39.957Z,76.99
2023-02-09T17:17:48.025Z,77.25
2023-02-09T17:21:50.830Z,77.31
2023-02-09T17:25:55.964Z,77.77
2023-02-09T17:29:58.783Z,78.49
2023-02-09T17:34:04.025Z,78.44
2023-02-09T17:38:07.673Z,78.27
2023-02-09T17:42:21.810Z,78.32
2023-02-09T17:46:25.019Z,78.81
2023-02-09T17:50:27.932Z,79.20
2023-02-09T17:54:32.510Z,79.37
2023-02-09T17:58:36.659Z,79.62
2023-02-09T18:02:39.522Z,79.27
2023-02-09T18:06:42.664Z,79.31
2023-02-09T18:10:45.870Z,80.15
2023-02-09T18:14:50.048Z,79.70
2023-02-09T18:18:53.056Z,80.20
2023-02-09T18:22:56.497Z,80.43
2023-02-09T18:26:59.683Z,80.28
2023-02-09T18:31:06.353Z,81.23
2023-02-09T18:35:11.654Z,81.20
2023-02-09T18:39:16.282Z,81.60
2023-02-09T18:43:19.083Z,81.86
2023-02-09T18:47:23.508Z,82.54
2023-02-09T18:51:26.388Z,82.69
2023-02-09T18:55:32.011Z,83.11
2023-02-09T18:59:34.876Z,83.30
2023-02-09T19:03:39.145Z,84.10
2023-02-09T19:07:42.354Z,84.78
2023-02-09T19:11:45.266Z,85.34
2023-02-09T19:15:48.414Z,86.01
2023-02-09T19:19:52.953Z,86.01
2023-02-09T19:23:55.976Z,86.15
2023-02-09T19:27:58.888Z,86.72
2023-02-09T19:32:02.945Z,87.21
2023-02-09T19:36:08.100Z,88.29
2023-02-09T19:40:20.884Z,88.18
2023-02-09T19:44:23.714Z,89.05
2023-02-09T19:48:26.528Z,89.41
2023-02-09T19:52:30.956Z,90.09
2023-02-09T19:56:33.735Z,90.65
2023-02-09T20:00:36.569Z,90.76
2023-02-09T20:04:39.579Z,91.27
2023-02-09T20:08:44.306Z,92.28
2023-02-09T20:12:47.462Z,92.75
2023-02-09T20:16:50.311Z,92.96
2023-02-09T20:20:53.173Z,94.09
2023-02-09T20:24:57.374Z,94.63
2023-02-09T20:29:00.464Z,95.06
2023-02-09T20:33:03.468Z,95.22
2023-02-09T20:37:06.285Z,96.28
2023-02-09T20:41:11.103Z,96.81
2023-02-09T20:45:33.017Z,96.77
2023-02-09T20:49:37.049Z,97.68
2023-02-09T20:53:39.868Z,97.73
2023-02-09T20:57:44.473Z,98.59
2023-02-09T21:01:48.019Z,98.84
2023-02-09T21:05:50.865Z,99.57
2023-02-09T21:09:55.802Z,99.54
2023-02-09T21:14:01.157Z,99.59
2023-02-09T21:18:06.557Z,100.00
2023-02-09T21:22:09.666Z,100.00
2023-02-09T21:26:14.321Z,100.00
2023-02-09T21:30:18.625Z,100.00
2023-02-09T21:34:21.490Z,100.00
2023-02-09T21:38:25.171Z,100.00
2023-02-09T21:42:28.704Z,100.00
2023-02-09T21:46:33.737Z,100.00
2023-02-09T21:50:36.536Z,100.00
2023-02-09T21:54:39.393Z,100.00
2023-02-09T21:58:42.559Z,100.00
2023-02-09T22:02:53.025Z,100.00
2023-02-09T22:06:56.330Z,100.00
2023-02-09T22:11:00.477Z,100.00
2023-02-09T22:15:03.600Z,100.00
2023-02-09T22:19:07.782Z,100.00
2023-02-09T22:23:10.614Z,100.00
2023-02-09T22:27:13.408Z,100.00
2023-02-09T22:31:19.188Z,100.00
2023-02-09T22:35:23.444Z,100.00
2023-02-09T22:39:26.302Z,100.00
2023-02-09T22:43:29.333Z,100.00
2023-02-09T22:47:32.564Z,100.00
2023-02-09T22:51:37.668Z,100.00
2023-02-09T22:55:40.586Z,100.00
2023-02-09T22:59:43.538Z,100.00
2023-02-09T23:03:46.488Z,100.00
2023-02-09T23:07:50.882Z,100.00
2023-02-09T23:11:53.789Z,100.00
2023-02-09T23:15:56.755Z,100.00
2023-02-09T23:19:59.620Z,100.00
2023-02-09T23:24:03.857Z,100.00
2023-02-09T23:28:06.747Z,100.00
2023-02-09T23:32:09.665Z,100.00
2023-02-09T23:36:14.898Z,100.00
2023-02-09T23:40:19.498Z,100.00
2023-02-09T23:44:22.318Z,100.00
2023-02-09T23:48:25.121Z,100.00
2023-02-09T23:52:27.933Z,100.00
2023-02-09T23:56:36.839Z,100.00
